createdAt,value
2023-02-25T00:01:51.186Z,81.40
2023-02-25T00:04:22.640Z,81.33
2023-02-25T00:06:50.753Z,81.20
2023-02-25T00:09:20.200Z,80.43
2023-02-25T00:11:48.327Z,83.97
2023-02-25T00:14:16.412Z,83.63
2023-02-25T00:16:44.533Z,82.50
2023-02-25T00:19:13.052Z,79.33
2023-02-25T00:21:41.291Z,82.07
2023-02-25T00:24:16.391Z,81.33
2023-02-25T00:26:46.362Z,80.47
2023-02-25T00:29:14.556Z,78.83
2023-02-25T00:31:42.909Z,75.80
2023-02-25T00:34:11.164Z,74.47
2023-02-25T00:36:39.782Z,74.00
2023-02-25T00:39:09.247Z,73.40
2023-02-25T00:41:37.407Z,72.67
2023-02-25T00:44:07.231Z,72.00
2023-02-25T00:46:36.328Z,70.40
2023-02-25T00:49:04.436Z,67.77
2023-02-25T00:51:34.243Z,66.53
2023-02-25T00:54:02.279Z,65.37
2023-02-25T00:56:30.976Z,62.20
2023-02-25T00:59:00.373Z,59.47
2023-02-25T01:01:33.442Z,57.60
2023-02-25T01:04:02.155Z,54.07
2023-02-25T01:06:31.819Z,53.93
2023-02-25T01:09:00.631Z,52.03
2023-02-25T01:11:30.749Z,51.87
2023-02-25T01:14:01.122Z,53.00
2023-02-25T01:16:32.377Z,52.50
2023-02-25T01:19:02.376Z,51.20
2023-02-25T01:21:32.473Z,52.37
2023-02-25T01:24:02.562Z,52.37
2023-02-25T01:26:33.781Z,52.60
2023-02-25T01:29:01.982Z,54.30
2023-02-25T01:31:31.868Z,52.93
2023-02-25T01:34:03.034Z,54.00
2023-02-25T01:36:32.749Z,55.53
2023-02-25T01:39:01.779Z,56.10
2023-02-25T01:41:32.248Z,55.07
2023-02-25T01:44:10.615Z,55.70
2023-02-25T01:46:41.388Z,54.77
2023-02-25T01:49:15.017Z,56.27
2023-02-25T01:51:45.427Z,56.90
2023-02-25T01:54:15.068Z,57.90
2023-02-25T01:56:48.196Z,60.90
2023-02-25T01:59:17.281Z,61.70
2023-02-25T02:01:46.892Z,62.60
2023-02-25T02:04:16.125Z,61.50
2023-02-25T02:06:46.077Z,60.20
2023-02-25T02:09:17.357Z,59.80
2023-02-25T02:11:46.435Z,58.30
2023-02-25T02:14:18.284Z,57.67
2023-02-25T02:17:14.346Z,58.80
2023-02-25T02:20:11.624Z,58.43
2023-02-25T02:22:47.830Z,60.73
2023-02-25T02:25:38.171Z,59.73
2023-02-25T02:28:33.527Z,63.27
2023-02-25T02:31:29.941Z,65.07
2023-02-25T02:34:07.738Z,68.93
2023-02-25T02:36:49.012Z,70.07
2023-02-25T02:39:26.496Z,71.30
2023-02-25T02:42:02.830Z,72.67
2023-02-25T02:44:36.319Z,75.10
2023-02-25T02:47:10.397Z,74.20
2023-02-25T02:49:44.336Z,74.10
2023-02-25T02:52:17.199Z,76.00
2023-02-25T02:54:53.122Z,74.97
2023-02-25T02:57:23.108Z,74.53
2023-02-25T02:59:55.188Z,74.70
2023-02-25T03:02:30.186Z,74.90
2023-02-25T03:05:02.149Z,74.07
2023-02-25T03:07:32.270Z,75.23
2023-02-25T03:10:03.728Z,75.37
2023-02-25T03:12:32.176Z,76.50
2023-02-25T03:15:00.536Z,78.70
2023-02-25T03:17:33.009Z,78.73
2023-02-25T03:20:05.061Z,78.33
2023-02-25T03:22:37.583Z,79.17
2023-02-25T03:25:13.782Z,79.77
2023-02-25T03:27:45.411Z,80.77
2023-02-25T03:30:19.291Z,80.10
2023-02-25T03:32:53.739Z,79.30
2023-02-25T03:35:22.830Z,80.53
2023-02-25T03:37:54.273Z,79.97
2023-02-25T03:40:23.997Z,80.80
2023-02-25T03:42:58.314Z,81.30
2023-02-25T03:45:26.625Z,82.00
2023-02-25T03:47:58.933Z,84.87
2023-02-25T03:50:30.749Z,82.77
2023-02-25T03:52:59.136Z,82.23
2023-02-25T03:55:29.296Z,82.90
2023-02-25T03:57:57.655Z,84.60
2023-02-25T04:00:29.315Z,80.93
2023-02-25T04:02:59.140Z,80.67
2023-02-25T04:05:28.665Z,80.63
2023-02-25T04:07:57.240Z,79.27
2023-02-25T04:10:25.542Z,80.03
2023-02-25T04:12:54.243Z,78.70
2023-02-25T04:15:22.782Z,78.33
2023-02-25T04:17:50.901Z,78.03
2023-02-25T04:20:20.747Z,77.30
2023-02-25T04:22:48.781Z,76.47
2023-02-25T04:25:16.875Z,77.40
2023-02-25T04:27:44.908Z,77.83
2023-02-25T04:30:14.503Z,77.50
2023-02-25T04:32:42.725Z,78.60
2023-02-25T04:35:13.434Z,78.60
2023-02-25T04:37:43.708Z,78.77
2023-02-25T04:40:15.349Z,79.70
2023-02-25T04:42:43.763Z,79.60
2023-02-25T04:45:12.863Z,80.20
2023-02-25T04:47:41.271Z,83.53
2023-02-25T04:50:11.269Z,81.23
2023-02-25T04:52:39.401Z,81.30
2023-02-25T04:55:10.811Z,81.50
2023-02-25T04:57:42.299Z,81.70
2023-02-25T05:00:19.732Z,80.87
2023-02-25T05:02:48.471Z,79.80
2023-02-25T05:05:17.259Z,82.20
2023-02-25T05:07:45.410Z,81.93
2023-02-25T05:10:15.816Z,82.60
2023-02-25T05:12:43.941Z,83.17
2023-02-25T05:15:13.357Z,84.40
2023-02-25T05:17:41.403Z,84.30
2023-02-25T05:20:13.032Z,85.50
2023-02-25T05:22:42.261Z,85.13
2023-02-25T05:25:11.336Z,84.70
2023-02-25T05:27:40.876Z,87.33
2023-02-25T05:30:10.755Z,87.70
2023-02-25T05:32:39.046Z,86.20
2023-02-25T05:35:09.819Z,85.10
2023-02-25T05:37:38.939Z,86.27
2023-02-25T05:40:09.194Z,84.43
2023-02-25T05:42:38.459Z,84.17
2023-02-25T05:45:09.130Z,82.60
2023-02-25T05:47:37.373Z,84.23
2023-02-25T05:50:06.142Z,84.80
2023-02-25T05:52:34.334Z,83.40
2023-02-25T05:55:02.960Z,85.03
2023-02-25T05:57:31.195Z,84.10
2023-02-25T05:59:59.362Z,83.97
2023-02-25T06:02:29.044Z,82.37
2023-02-25T06:04:57.221Z,82.27
2023-02-25T06:07:25.407Z,83.87
2023-02-25T06:09:55.080Z,82.53
2023-02-25T06:12:23.153Z,79.40
2023-02-25T06:14:51.223Z,78.70
2023-02-25T06:17:19.280Z,79.27
2023-02-25T06:19:48.743Z,77.77
2023-02-25T06:22:16.867Z,78.77
2023-02-25T06:24:45.124Z,77.43
2023-02-25T06:27:13.777Z,76.00
2023-02-25T06:29:42.709Z,77.07
2023-02-25T06:32:12.123Z,76.83
2023-02-25T06:34:40.735Z,76.17
2023-02-25T06:37:10.452Z,77.57
2023-02-25T06:39:38.527Z,73.53
2023-02-25T06:42:06.841Z,74.87
2023-02-25T06:44:34.930Z,75.77
2023-02-25T06:47:03.108Z,81.47
2023-02-25T06:49:32.040Z,79.83
2023-02-25T06:52:00.064Z,76.57
2023-02-25T06:54:29.506Z,79.30
2023-02-25T06:56:57.614Z,77.60
2023-02-25T06:59:25.784Z,75.23
2023-02-25T07:01:53.942Z,74.60
2023-02-25T07:04:22.190Z,70.43
2023-02-25T07:06:50.368Z,74.23
2023-02-25T07:09:18.475Z,72.93
2023-02-25T07:11:47.837Z,70.97
2023-02-25T07:14:16.444Z,73.87
2023-02-25T07:16:44.559Z,76.60
2023-02-25T07:19:15.092Z,77.37
2023-02-25T07:21:44.021Z,74.77
2023-02-25T07:24:12.859Z,74.30
2023-02-25T07:26:41.369Z,73.10
2023-02-25T07:29:10.856Z,72.60
2023-02-25T07:31:39.158Z,72.67
2023-02-25T07:34:07.572Z,73.67
2023-02-25T07:36:38.073Z,74.07
2023-02-25T07:39:08.851Z,72.90
2023-02-25T07:41:37.577Z,72.47
2023-02-25T07:44:07.046Z,74.37
2023-02-25T07:46:37.512Z,75.27
2023-02-25T07:49:05.641Z,74.10
2023-02-25T07:51:33.941Z,73.40
2023-02-25T07:54:02.831Z,74.70
2023-02-25T07:56:31.771Z,74.10
2023-02-25T07:58:59.880Z,76.33
2023-02-25T08:01:29.985Z,73.87
2023-02-25T08:04:04.106Z,74.47
2023-02-25T08:06:35.345Z,73.77
2023-02-25T08:09:05.736Z,74.93
2023-02-25T08:11:34.424Z,76.17
2023-02-25T08:14:02.517Z,76.00
2023-02-25T08:16:30.643Z,76.40
2023-02-25T08:19:01.286Z,73.60
2023-02-25T08:21:30.835Z,71.80
2023-02-25T08:23:59.012Z,72.00
2023-02-25T08:26:28.100Z,67.13
2023-02-25T08:28:58.557Z,62.00
2023-02-25T08:31:27.509Z,55.53
2023-02-25T08:33:57.250Z,49.90
2023-02-25T08:36:29.138Z,47.13
2023-02-25T08:38:58.470Z,48.13
2023-02-25T08:41:27.756Z,46.80
2023-02-25T08:43:57.509Z,47.77
2023-02-25T08:46:27.893Z,49.33
2023-02-25T08:48:56.614Z,44.90
2023-02-25T08:51:34.174Z,45.07
2023-02-25T08:54:04.455Z,43.03
2023-02-25T08:56:32.909Z,40.83
2023-02-25T08:59:01.045Z,39.83
2023-02-25T09:01:44.352Z,37.67
2023-02-25T09:04:12.742Z,31.47
2023-02-25T09:06:42.200Z,31.60
2023-02-25T09:09:11.629Z,31.20
2023-02-25T09:11:41.933Z,33.60
2023-02-25T09:14:10.731Z,32.17
2023-02-25T09:16:39.223Z,32.63
2023-02-25T09:19:07.813Z,32.93
2023-02-25T09:21:37.125Z,33.27
2023-02-25T09:24:07.421Z,31.77
2023-02-25T09:26:35.878Z,30.80
2023-02-25T09:29:05.912Z,33.40
2023-02-25T09:31:36.948Z,31.47
2023-02-25T09:34:07.919Z,30.90
2023-02-25T09:36:36.990Z,30.27
2023-02-25T09:39:10.599Z,32.57
2023-02-25T09:41:47.459Z,32.57
2023-02-25T09:44:19.351Z,31.67
2023-02-25T09:46:52.324Z,30.40
2023-02-25T09:49:27.751Z,34.10
2023-02-25T09:52:02.013Z,34.37
2023-02-25T09:54:38.363Z,35.60
2023-02-25T09:57:10.950Z,35.77
2023-02-25T09:59:39.997Z,35.87
2023-02-25T10:02:23.544Z,36.27
2023-02-25T10:05:04.596Z,34.50
2023-02-25T10:07:37.198Z,31.10
2023-02-25T10:10:14.683Z,31.70
2023-02-25T10:12:53.275Z,30.50
2023-02-25T10:15:37.383Z,30.57
2023-02-25T10:18:23.702Z,26.80
2023-02-25T10:21:00.279Z,25.07
2023-02-25T10:23:41.114Z,24.53
2023-02-25T10:26:19.083Z,24.03
2023-02-25T10:28:51.672Z,21.97
2023-02-25T10:31:22.866Z,22.20
2023-02-25T10:33:53.950Z,20.33
2023-02-25T10:36:28.501Z,20.23
2023-02-25T10:38:57.334Z,22.17
2023-02-25T10:41:28.431Z,23.03
2023-02-25T10:43:57.779Z,21.33
2023-02-25T10:46:31.471Z,21.57
2023-02-25T10:49:01.114Z,24.30
2023-02-25T10:51:29.949Z,19.90
2023-02-25T10:54:04.947Z,19.43
2023-02-25T10:56:42.566Z,18.40
2023-02-25T10:59:31.243Z,17.80
2023-02-25T11:02:03.331Z,16.90
2023-02-25T11:04:37.717Z,16.50
2023-02-25T11:07:25.881Z,16.47
2023-02-25T11:10:09.281Z,16.27
2023-02-25T11:12:44.132Z,16.50
2023-02-25T11:15:47.015Z,17.53
2023-02-25T11:18:22.546Z,17.00
2023-02-25T11:20:54.051Z,16.70
2023-02-25T11:23:27.137Z,16.07
2023-02-25T11:25:56.674Z,16.63
2023-02-25T11:28:31.216Z,16.10
2023-02-25T11:31:10.189Z,15.80
2023-02-25T11:33:41.489Z,16.03
2023-02-25T11:36:10.850Z,16.60
2023-02-25T11:38:41.320Z,16.20
2023-02-25T11:41:18.780Z,16.40
2023-02-25T11:43:48.816Z,17.77
2023-02-25T11:46:22.165Z,16.27
2023-02-25T11:48:52.794Z,16.80
2023-02-25T11:51:26.338Z,16.60
2023-02-25T11:54:08.701Z,16.50
2023-02-25T11:56:39.422Z,17.43
2023-02-25T11:59:22.906Z,16.57
2023-02-25T12:02:17.642Z,16.13
2023-02-25T12:05:14.394Z,16.20
2023-02-25T12:08:12.368Z,16.20
2023-02-25T12:11:19.856Z,16.90
2023-02-25T12:14:20.292Z,16.87
2023-02-25T12:17:20.613Z,15.67
2023-02-25T12:20:33.233Z,15.90
2023-02-25T12:23:53.830Z,16.60
2023-02-25T12:26:32.503Z,16.30
2023-02-25T12:29:20.852Z,15.83
2023-02-25T12:32:08.454Z,16.40
2023-02-25T12:35:07.026Z,16.33
2023-02-25T12:38:23.182Z,16.23
2023-02-25T12:41:06.707Z,16.30
2023-02-25T12:43:46.060Z,16.73
2023-02-25T12:46:33.833Z,16.80
2023-02-25T12:49:43.353Z,18.73
2023-02-25T12:52:24.997Z,16.70
2023-02-25T12:55:21.604Z,16.33
2023-02-25T12:57:59.519Z,17.00
2023-02-25T13:00:44.711Z,16.97
2023-02-25T13:03:33.178Z,17.03
2023-02-25T13:06:21.572Z,16.77
2023-02-25T13:09:07.144Z,16.50
2023-02-25T13:15:04.215Z,16.97
2023-02-25T13:17:48.749Z,16.87
2023-02-25T13:20:51.550Z,16.67
2023-02-25T13:23:47.354Z,17.07
2023-02-25T13:26:43.735Z,16.70
2023-02-25T13:29:35.962Z,16.27
2023-02-25T13:32:21.562Z,16.50
2023-02-25T13:35:01.995Z,16.30
2023-02-25T13:37:42.301Z,16.67
2023-02-25T13:40:32.785Z,16.33
2023-02-25T13:43:34.146Z,16.20
2023-02-25T13:46:25.148Z,16.37
2023-02-25T13:49:10.873Z,16.63
2023-02-25T13:52:07.871Z,16.50
2023-02-25T13:54:55.993Z,16.50
2023-02-25T13:57:41.234Z,16.30
2023-02-25T14:00:35.731Z,16.13
2023-02-25T14:03:34.162Z,16.20
2023-02-25T14:06:08.466Z,16.37
2023-02-25T14:09:07.196Z,16.40
2023-02-25T14:12:06.316Z,15.93
2023-02-25T14:15:07.349Z,16.10
2023-02-25T14:17:54.335Z,16.50
2023-02-25T14:20:37.669Z,16.07
2023-02-25T14:23:13.660Z,16.03
2023-02-25T14:25:56.341Z,16.37
2023-02-25T14:28:33.437Z,16.17
2023-02-25T14:31:14.456Z,16.10
2023-02-25T14:34:04.649Z,16.20
2023-02-25T14:37:11.883Z,16.90
2023-02-25T14:39:51.345Z,16.60
2023-02-25T14:42:36.315Z,17.13
2023-02-25T14:45:15.506Z,17.20
2023-02-25T14:47:54.537Z,17.10
2023-02-25T14:50:27.278Z,17.00
2023-02-25T14:53:27.522Z,17.30
2023-02-25T14:56:30.939Z,16.80
2023-02-25T14:59:29.701Z,17.40
2023-02-25T15:02:25.858Z,16.27
2023-02-25T15:05:27.824Z,16.80
2023-02-25T15:08:12.280Z,16.40
2023-02-25T15:10:59.020Z,16.50
2023-02-25T15:14:18.786Z,16.80
2023-02-25T15:17:14.134Z,17.00
2023-02-25T15:20:05.112Z,17.03
2023-02-25T15:22:37.323Z,16.70
2023-02-25T15:25:37.484Z,16.70
2023-02-25T15:28:36.913Z,16.97
2023-02-25T15:31:28.704Z,16.43
2023-02-25T15:34:43.489Z,16.70
2023-02-25T15:37:34.748Z,17.10
2023-02-25T15:40:36.395Z,17.83
2023-02-25T15:43:39.191Z,16.90
2023-02-25T15:46:40.882Z,16.73
2023-02-25T15:49:31.302Z,17.00
2023-02-25T15:52:03.191Z,17.00
2023-02-25T15:54:51.084Z,17.00
2023-02-25T15:57:39.140Z,16.93
2023-02-25T16:00:44.872Z,17.30
2023-02-25T16:03:39.162Z,17.03
2023-02-25T16:06:12.641Z,16.57
2023-02-25T16:08:48.212Z,16.50
2023-02-25T16:11:27.441Z,17.40
2023-02-25T16:13:56.106Z,16.30
2023-02-25T16:16:25.763Z,16.40
2023-02-25T16:18:58.158Z,16.40
2023-02-25T16:21:30.186Z,16.47
2023-02-25T16:24:00.595Z,16.37
2023-02-25T16:26:35.379Z,16.47
2023-02-25T16:29:14.521Z,16.20
2023-02-25T16:31:48.449Z,17.40
2023-02-25T16:34:24.378Z,16.17
2023-02-25T16:37:05.387Z,16.20
2023-02-25T16:39:33.880Z,16.30
2023-02-25T16:42:05.227Z,16.60
2023-02-25T16:44:38.992Z,16.37
2023-02-25T16:47:21.287Z,16.40
2023-02-25T16:49:51.884Z,16.30
2023-02-25T16:52:24.844Z,15.90
2023-02-25T16:54:57.507Z,15.90
2023-02-25T16:57:26.272Z,16.10
2023-02-25T17:00:14.421Z,16.03
2023-02-25T17:02:47.669Z,16.07
2023-02-25T17:05:36.559Z,15.60
2023-02-25T17:08:06.786Z,15.80
2023-02-25T17:10:43.420Z,15.77
2023-02-25T17:13:16.990Z,15.60
2023-02-25T17:15:46.168Z,20.03
2023-02-25T17:18:24.453Z,24.50
2023-02-25T17:21:02.035Z,15.80
2023-02-25T17:23:30.968Z,15.90
2023-02-25T17:26:00.629Z,15.80
2023-02-25T17:28:32.025Z,15.90
2023-02-25T17:31:08.536Z,15.43
2023-02-25T17:33:46.512Z,17.27
2023-02-25T17:36:19.721Z,16.33
2023-02-25T17:38:56.497Z,16.10
2023-02-25T17:41:25.799Z,16.07
2023-02-25T17:43:54.568Z,15.90
2023-02-25T17:46:30.820Z,16.07
2023-02-25T17:49:00.736Z,15.60
2023-02-25T17:51:33.729Z,16.03
2023-02-25T17:54:06.833Z,16.23
2023-02-25T17:56:36.996Z,16.07
2023-02-25T17:59:07.115Z,16.00
2023-02-25T18:01:47.985Z,16.00
2023-02-25T18:04:25.558Z,16.40
2023-02-25T18:06:56.449Z,16.10
2023-02-25T18:09:38.563Z,16.10
2023-02-25T18:12:12.257Z,16.10
2023-02-25T18:14:43.245Z,16.27
2023-02-25T18:17:23.344Z,16.00
2023-02-25T18:19:52.153Z,17.43
2023-02-25T18:22:32.800Z,16.83
2023-02-25T18:25:02.789Z,16.90
2023-02-25T18:27:32.926Z,16.60
2023-02-25T18:30:15.932Z,18.40
2023-02-25T18:32:44.174Z,17.13
2023-02-25T18:35:12.575Z,17.20
2023-02-25T18:37:42.967Z,17.37
2023-02-25T18:40:17.080Z,18.53
2023-02-25T18:42:45.213Z,18.30
2023-02-25T18:45:17.487Z,17.60
2023-02-25T18:47:45.822Z,17.77
2023-02-25T18:50:14.297Z,17.00
2023-02-25T18:52:43.938Z,16.93
2023-02-25T18:55:18.785Z,16.90
2023-02-25T18:57:46.923Z,16.60
2023-02-25T19:00:16.503Z,17.20
2023-02-25T19:02:49.016Z,17.20
2023-02-25T19:05:18.221Z,16.67
2023-02-25T19:07:49.324Z,17.00
2023-02-25T19:10:18.758Z,17.10
2023-02-25T19:12:49.538Z,17.40
2023-02-25T19:15:20.847Z,17.13
2023-02-25T19:17:50.074Z,17.87
2023-02-25T19:20:20.322Z,17.03
2023-02-25T19:22:51.579Z,17.30
2023-02-25T19:25:23.032Z,18.10
2023-02-25T19:27:51.818Z,17.47
2023-02-25T19:30:22.761Z,17.63
2023-02-25T19:32:50.780Z,17.63
2023-02-25T19:35:19.413Z,17.93
2023-02-25T19:37:48.804Z,17.30
2023-02-25T19:40:18.095Z,18.13
2023-02-25T19:42:47.049Z,18.23
2023-02-25T19:45:17.313Z,18.83
2023-02-25T19:47:45.530Z,19.00
2023-02-25T19:50:15.413Z,18.57
2023-02-25T19:52:44.381Z,18.90
2023-02-25T19:55:15.131Z,18.50
2023-02-25T19:57:43.710Z,18.60
2023-02-25T20:00:14.960Z,18.50
2023-02-25T20:02:43.808Z,18.80
2023-02-25T20:05:12.870Z,18.53
2023-02-25T20:07:41.154Z,20.17
2023-02-25T20:10:11.016Z,19.90
2023-02-25T20:12:42.114Z,19.23
2023-02-25T20:15:13.213Z,18.73
2023-02-25T20:17:42.828Z,19.50
2023-02-25T20:20:12.831Z,19.47
2023-02-25T20:22:41.228Z,20.57
2023-02-25T20:25:10.450Z,20.07
2023-02-25T20:27:43.260Z,20.37
2023-02-25T20:30:14.363Z,20.50
2023-02-25T20:32:44.073Z,20.73
2023-02-25T20:35:17.325Z,21.20
2023-02-25T20:37:55.072Z,20.40
2023-02-25T20:40:23.476Z,20.57
2023-02-25T20:42:53.304Z,21.10
2023-02-25T20:45:22.091Z,21.10
2023-02-25T20:47:50.607Z,21.97
2023-02-25T20:50:24.438Z,20.43
2023-02-25T20:52:52.636Z,20.10
2023-02-25T20:55:20.760Z,19.97
2023-02-25T20:57:48.812Z,20.20
2023-02-25T21:00:20.532Z,19.70
2023-02-25T21:02:48.716Z,19.60
2023-02-25T21:05:16.964Z,19.70
2023-02-25T21:07:45.039Z,20.00
2023-02-25T21:10:13.542Z,19.47
2023-02-25T21:12:41.676Z,19.23
2023-02-25T21:15:10.877Z,20.07
2023-02-25T21:17:40.354Z,19.83
2023-02-25T21:20:09.321Z,19.20
2023-02-25T21:22:37.524Z,19.87
2023-02-25T21:25:06.131Z,21.70
2023-02-25T21:27:34.193Z,19.90
2023-02-25T21:30:03.029Z,19.80
2023-02-25T21:32:31.142Z,20.37
2023-02-25T21:35:00.582Z,20.20
2023-02-25T21:37:28.718Z,19.90
2023-02-25T21:39:56.789Z,20.23
2023-02-25T21:42:24.872Z,19.90
2023-02-25T21:44:52.942Z,19.77
2023-02-25T21:47:21.019Z,19.40
2023-02-25T21:49:50.273Z,19.50
2023-02-25T21:52:19.778Z,19.67
2023-02-25T21:54:47.788Z,19.40
2023-02-25T21:57:16.369Z,19.67
2023-02-25T21:59:44.414Z,19.97
2023-02-25T22:02:12.558Z,19.50
2023-02-25T22:04:40.701Z,19.73
2023-02-25T22:07:08.776Z,19.90
2023-02-25T22:09:38.231Z,19.80
2023-02-25T22:12:06.606Z,20.83
2023-02-25T22:14:34.691Z,20.37
2023-02-25T22:17:02.787Z,20.07
2023-02-25T22:19:32.298Z,20.50
2023-02-25T22:22:00.415Z,20.20
2023-02-25T22:24:28.571Z,20.00
2023-02-25T22:26:57.974Z,20.60
2023-02-25T22:29:26.010Z,19.80
2023-02-25T22:31:54.273Z,24.37
2023-02-25T22:34:22.610Z,21.33
2023-02-25T22:36:50.770Z,20.73
2023-02-25T22:39:18.928Z,20.90
2023-02-25T22:41:46.966Z,20.10
2023-02-25T22:44:16.398Z,20.30
2023-02-25T22:46:44.516Z,21.53
2023-02-25T22:49:12.778Z,21.20
2023-02-25T22:51:42.891Z,21.30
2023-02-25T22:54:12.170Z,21.63
2023-02-25T22:56:40.659Z,20.77
2023-02-25T22:59:09.046Z,21.13
2023-02-25T23:01:40.093Z,21.63
2023-02-25T23:04:08.870Z,20.17
2023-02-25T23:06:44.139Z,21.20
2023-02-25T23:09:13.369Z,20.07
2023-02-25T23:11:43.307Z,21.90
2023-02-25T23:14:12.111Z,22.20
2023-02-25T23:16:43.942Z,21.40
2023-02-25T23:19:15.532Z,20.53
2023-02-25T23:21:43.901Z,20.50
2023-02-25T23:24:16.301Z,20.50
2023-02-25T23:26:45.436Z,20.70
2023-02-25T23:29:13.817Z,21.10
2023-02-25T23:31:46.911Z,21.03
2023-02-25T23:34:18.839Z,20.97
2023-02-25T23:36:47.330Z,21.20
2023-02-25T23:39:16.067Z,21.37
2023-02-25T23:41:44.408Z,21.60
2023-02-25T23:44:13.770Z,22.93
2023-02-25T23:46:45.112Z,22.03
2023-02-25T23:49:14.699Z,22.40
2023-02-25T23:51:44.306Z,22.50
2023-02-25T23:54:15.646Z,22.73
2023-02-25T23:56:43.764Z,22.53
2023-02-25T23:59:12.186Z,22.30
